GIA860 WIII-VHHH
Flight info
| Callsign | GIA860 |
|---|---|
| Flight time | N/A |
| Altitude | 36000 |
| Route | WIII/07L 0539S10706E ANIPU M772 DULOP Q1 CARSO V551 BETTY |
| Aircraft | A333/H-SDE3GHIJ2J3J5M1RVWXY/LB2D1 |
Departure
| Time | N/A |
|---|---|
| Airport | Soekarno-Hatta International Airport (WIII) |
Arrival
| Time | 2026-05-06 09:16 |
|---|---|
| Airport | Hong Kong International Airport (VHHH) |
| Time | Latitude | Longitude | Altitude | Speed | Heading |
|---|---|---|---|---|---|
| 2026-05-06 05:10 | -5.20774 | 107.41562 | 23857 ft | 421 kts | 36° |
| 2026-05-06 05:10 | -5.18371 | 107.43245 | 23857 ft | 421 kts | 36° |
| 2026-05-06 05:10 | -5.15968 | 107.44928 | 23867 ft | 421 kts | 36° |
| 2026-05-06 05:10 | -5.13565 | 107.46611 | 23858 ft | 421 kts | 36° |
| 2026-05-06 05:11 | -5.11156 | 107.48297 | 23920 ft | 422 kts | 36° |
| 2026-05-06 05:11 | -5.08743 | 107.49986 | 24183 ft | 425 kts | 36° |
| 2026-05-06 05:11 | -5.06317 | 107.51685 | 24604 ft | 425 kts | 36° |
| 2026-05-06 05:11 | -5.03883 | 107.53388 | 24963 ft | 427 kts | 36° |
| 2026-05-06 05:12 | -5.01445 | 107.55095 | 25323 ft | 429 kts | 36° |
| 2026-05-06 05:12 | -4.98990 | 107.56813 | 25658 ft | 432 kts | 36° |
| 2026-05-06 05:12 | -4.96523 | 107.58539 | 26033 ft | 433 kts | 36° |
| 2026-05-06 05:12 | -4.94039 | 107.60277 | 26359 ft | 436 kts | 36° |
| 2026-05-06 05:13 | -4.91548 | 107.62019 | 26729 ft | 438 kts | 36° |
| 2026-05-06 05:13 | -4.89042 | 107.63773 | 27073 ft | 440 kts | 36° |
| 2026-05-06 05:13 | -4.86522 | 107.65535 | 27400 ft | 443 kts | 36° |
| 2026-05-06 05:13 | -4.84026 | 107.67281 | 27753 ft | 444 kts | 36° |
| 2026-05-06 05:14 | -4.81483 | 107.69059 | 28060 ft | 447 kts | 36° |
| 2026-05-06 05:14 | -4.78921 | 107.70851 | 28441 ft | 448 kts | 36° |
| 2026-05-06 05:14 | -4.76356 | 107.72645 | 28738 ft | 451 kts | 36° |
| 2026-05-06 05:14 | -4.73777 | 107.74448 | 29089 ft | 453 kts | 36° |
| 2026-05-06 05:15 | -4.71177 | 107.76265 | 29383 ft | 456 kts | 36° |
| 2026-05-06 05:15 | -4.68573 | 107.78085 | 29692 ft | 458 kts | 36° |
| 2026-05-06 05:15 | -4.65948 | 107.79920 | 30018 ft | 460 kts | 35° |
| 2026-05-06 05:15 | -4.63319 | 107.81758 | 30251 ft | 462 kts | 35° |
| 2026-05-06 05:16 | -4.60666 | 107.83611 | 30532 ft | 464 kts | 36° |
| 2026-05-06 05:16 | -4.58012 | 107.85465 | 30758 ft | 467 kts | 36° |
| 2026-05-06 05:16 | -4.55340 | 107.87332 | 31038 ft | 468 kts | 35° |
| 2026-05-06 05:16 | -4.52661 | 107.89204 | 31299 ft | 470 kts | 36° |
| 2026-05-06 05:17 | -4.50005 | 107.91059 | 31543 ft | 472 kts | 36° |
| 2026-05-06 05:17 | -4.47308 | 107.92943 | 31824 ft | 473 kts | 36° |
| 2026-05-06 05:17 | -4.44604 | 107.94832 | 32123 ft | 473 kts | 36° |
| 2026-05-06 05:17 | -4.41907 | 107.96715 | 32539 ft | 471 kts | 35° |
| 2026-05-06 05:18 | -4.39215 | 107.98596 | 32891 ft | 471 kts | 36° |
| 2026-05-06 05:18 | -4.36531 | 108.00469 | 33274 ft | 470 kts | 35° |
| 2026-05-06 05:18 | -4.33858 | 108.02336 | 33668 ft | 468 kts | 36° |
| 2026-05-06 05:18 | -4.31183 | 108.04203 | 33972 ft | 468 kts | 35° |
| 2026-05-06 05:19 | -4.28517 | 108.06063 | 34291 ft | 467 kts | 35° |
| 2026-05-06 05:19 | -4.25848 | 108.07926 | 34533 ft | 468 kts | 36° |
| 2026-05-06 05:19 | -4.23187 | 108.09784 | 34833 ft | 467 kts | 35° |
| 2026-05-06 05:19 | -4.20517 | 108.11647 | 35113 ft | 467 kts | 35° |
| 2026-05-06 05:20 | -4.17850 | 108.13509 | 35385 ft | 467 kts | 36° |
| 2026-05-06 05:20 | -4.15180 | 108.15372 | 35654 ft | 467 kts | 35° |
| 2026-05-06 05:20 | -4.12507 | 108.17214 | 35813 ft | 465 kts | 34° |
| 2026-05-06 05:21 | -4.07193 | 108.20666 | 35850 ft | 453 kts | 33° |
| 2026-05-06 05:21 | -4.01872 | 108.24033 | 35847 ft | 452 kts | 33° |
| 2026-05-06 05:22 | -3.96549 | 108.27413 | 35846 ft | 452 kts | 33° |
| 2026-05-06 05:22 | -3.91240 | 108.30803 | 35845 ft | 452 kts | 33° |
| 2026-05-06 05:23 | -3.85944 | 108.34192 | 35844 ft | 452 kts | 33° |
| 2026-05-06 05:23 | -3.78024 | 108.39261 | 35847 ft | 452 kts | 33° |
| 2026-05-06 05:24 | -3.72721 | 108.42652 | 35848 ft | 452 kts | 33° |
| 2026-05-06 05:24 | -3.67422 | 108.46042 | 35844 ft | 452 kts | 33° |
| 2026-05-06 05:25 | -3.62122 | 108.49432 | 35845 ft | 451 kts | 33° |
| 2026-05-06 05:25 | -3.56824 | 108.52819 | 35845 ft | 452 kts | 33° |
| 2026-05-06 05:26 | -3.51551 | 108.56189 | 35844 ft | 452 kts | 33° |
| 2026-05-06 05:26 | -3.46237 | 108.59586 | 35846 ft | 452 kts | 33° |
| 2026-05-06 05:27 | -3.40933 | 108.62975 | 35843 ft | 452 kts | 33° |
| 2026-05-06 05:27 | -3.35627 | 108.66365 | 35844 ft | 452 kts | 33° |
| 2026-05-06 05:28 | -3.30324 | 108.69754 | 35844 ft | 452 kts | 33° |
| 2026-05-06 05:28 | -3.25052 | 108.73122 | 35843 ft | 452 kts | 33° |
| 2026-05-06 05:29 | -3.19743 | 108.76514 | 35842 ft | 452 kts | 33° |
| 2026-05-06 05:29 | -3.14440 | 108.79902 | 35842 ft | 452 kts | 33° |
| 2026-05-06 05:30 | -3.09130 | 108.83293 | 35842 ft | 451 kts | 33° |
| 2026-05-06 05:30 | -3.03873 | 108.86650 | 35840 ft | 451 kts | 33° |
| 2026-05-06 05:31 | -2.98586 | 108.90026 | 35844 ft | 451 kts | 33° |
| 2026-05-06 05:31 | -2.93287 | 108.93409 | 35843 ft | 451 kts | 33° |
| 2026-05-06 05:32 | -2.87990 | 108.96791 | 35843 ft | 451 kts | 33° |
| 2026-05-06 05:32 | -2.82697 | 109.00168 | 35844 ft | 451 kts | 33° |
| 2026-05-06 05:33 | -2.77412 | 109.03541 | 35844 ft | 450 kts | 33° |
| 2026-05-06 05:33 | -2.72160 | 109.06892 | 35843 ft | 450 kts | 33° |
| 2026-05-06 05:34 | -2.66875 | 109.10264 | 35840 ft | 450 kts | 33° |
| 2026-05-06 05:34 | -2.61588 | 109.13636 | 35837 ft | 450 kts | 33° |
| 2026-05-06 05:35 | -2.56306 | 109.17006 | 35840 ft | 449 kts | 33° |
| 2026-05-06 05:35 | -2.51040 | 109.20364 | 35841 ft | 449 kts | 33° |
| 2026-05-06 05:36 | -2.45764 | 109.23731 | 35840 ft | 450 kts | 33° |
| 2026-05-06 05:36 | -2.40472 | 109.27106 | 35839 ft | 451 kts | 33° |
| 2026-05-06 05:37 | -2.35184 | 109.30479 | 35838 ft | 451 kts | 33° |
| 2026-05-06 05:37 | -2.29931 | 109.33827 | 35838 ft | 451 kts | 33° |
| 2026-05-06 05:38 | -2.24637 | 109.37202 | 35837 ft | 450 kts | 33° |
| 2026-05-06 05:38 | -2.19347 | 109.40575 | 35835 ft | 450 kts | 33° |
| 2026-05-06 05:39 | -2.14957 | 109.43374 | 35837 ft | 451 kts | 33° |
| 2026-05-06 05:39 | -2.09662 | 109.46749 | 35837 ft | 451 kts | 33° |
| 2026-05-06 05:40 | -2.04346 | 109.50137 | 35837 ft | 453 kts | 33° |
| 2026-05-06 05:40 | -1.99033 | 109.53523 | 35831 ft | 453 kts | 33° |
| 2026-05-06 05:41 | -1.93750 | 109.56890 | 35832 ft | 453 kts | 33° |
| 2026-05-06 05:41 | -1.88437 | 109.60275 | 35831 ft | 453 kts | 33° |
| 2026-05-06 05:42 | -1.83121 | 109.63662 | 35832 ft | 453 kts | 33° |
| 2026-05-06 05:42 | -1.77810 | 109.67046 | 35831 ft | 453 kts | 33° |
| 2026-05-06 05:43 | -1.72490 | 109.70435 | 35831 ft | 453 kts | 33° |
| 2026-05-06 05:43 | -1.67182 | 109.73816 | 35832 ft | 453 kts | 33° |
| 2026-05-06 05:44 | -1.61825 | 109.77229 | 35829 ft | 453 kts | 33° |
| 2026-05-06 05:44 | -1.56597 | 109.80559 | 35829 ft | 453 kts | 33° |
| 2026-05-06 05:45 | -1.51281 | 109.83945 | 35829 ft | 453 kts | 33° |
| 2026-05-06 05:45 | -1.45961 | 109.87333 | 35828 ft | 453 kts | 33° |
| 2026-05-06 05:46 | -1.40674 | 109.90699 | 35832 ft | 452 kts | 33° |
| 2026-05-06 05:46 | -1.35365 | 109.94081 | 35832 ft | 452 kts | 33° |
| 2026-05-06 05:47 | -1.30056 | 109.97461 | 35830 ft | 452 kts | 33° |
| 2026-05-06 05:47 | -1.24747 | 110.00841 | 35829 ft | 452 kts | 33° |
| 2026-05-06 05:48 | -1.19426 | 110.04229 | 35828 ft | 452 kts | 33° |
| 2026-05-06 05:48 | -1.14117 | 110.07610 | 35828 ft | 452 kts | 33° |
| 2026-05-06 05:49 | -1.08840 | 110.10969 | 35828 ft | 452 kts | 33° |
| 2026-05-06 05:49 | -1.03524 | 110.14353 | 35828 ft | 452 kts | 33° |
| 2026-05-06 05:50 | -0.98220 | 110.17730 | 35829 ft | 452 kts | 33° |
| 2026-05-06 05:50 | -0.92907 | 110.21111 | 35827 ft | 452 kts | 33° |
| 2026-05-06 05:51 | -0.87593 | 110.24494 | 35827 ft | 452 kts | 33° |
| 2026-05-06 05:51 | -0.82285 | 110.27873 | 35830 ft | 452 kts | 33° |
| 2026-05-06 05:52 | -0.77008 | 110.31232 | 35829 ft | 452 kts | 33° |
| 2026-05-06 05:52 | -0.71700 | 110.34610 | 35829 ft | 452 kts | 33° |
| 2026-05-06 05:53 | -0.66391 | 110.37990 | 35832 ft | 452 kts | 34° |
| 2026-05-06 05:53 | -0.61085 | 110.41367 | 35832 ft | 452 kts | 34° |
| 2026-05-06 05:54 | -0.55782 | 110.44742 | 35833 ft | 452 kts | 34° |
| 2026-05-06 05:54 | -0.50478 | 110.48117 | 35833 ft | 452 kts | 34° |
| 2026-05-06 05:55 | -0.45169 | 110.51496 | 35835 ft | 453 kts | 34° |
| 2026-05-06 05:55 | -0.39855 | 110.54878 | 35829 ft | 453 kts | 34° |
| 2026-05-06 05:56 | -0.34567 | 110.58244 | 35830 ft | 453 kts | 34° |
| 2026-05-06 05:56 | -0.29251 | 110.61626 | 35833 ft | 452 kts | 34° |
| 2026-05-06 05:57 | -0.23940 | 110.65006 | 35828 ft | 452 kts | 34° |
| 2026-05-06 05:57 | -0.18628 | 110.68387 | 35829 ft | 452 kts | 34° |
| 2026-05-06 05:58 | -0.13318 | 110.71766 | 35821 ft | 452 kts | 34° |
| 2026-05-06 05:58 | -0.08008 | 110.75145 | 35821 ft | 452 kts | 34° |
| 2026-05-06 05:59 | -0.02689 | 110.78529 | 35822 ft | 452 kts | 34° |
| 2026-05-06 05:59 | 0.02584 | 110.81885 | 35820 ft | 452 kts | 34° |
| 2026-05-06 06:00 | 0.07896 | 110.85266 | 35821 ft | 452 kts | 34° |
| 2026-05-06 06:00 | 0.13210 | 110.88647 | 35818 ft | 452 kts | 34° |
| 2026-05-06 06:01 | 0.18530 | 110.92032 | 35818 ft | 452 kts | 34° |
| 2026-05-06 06:01 | 0.23838 | 110.95410 | 35818 ft | 452 kts | 34° |
| 2026-05-06 06:02 | 0.29150 | 110.98790 | 35819 ft | 452 kts | 34° |
| 2026-05-06 06:02 | 0.34464 | 111.02172 | 35817 ft | 452 kts | 34° |
| 2026-05-06 06:03 | 0.39742 | 111.05531 | 35814 ft | 452 kts | 34° |
| 2026-05-06 06:03 | 0.45059 | 111.08915 | 35816 ft | 452 kts | 34° |
| 2026-05-06 06:04 | 0.50375 | 111.12298 | 35815 ft | 452 kts | 34° |
| 2026-05-06 06:04 | 0.55695 | 111.15684 | 35797 ft | 452 kts | 34° |
| 2026-05-06 06:05 | 0.60973 | 111.19043 | 35811 ft | 452 kts | 34° |
| 2026-05-06 06:05 | 0.66280 | 111.22420 | 35814 ft | 452 kts | 34° |
| 2026-05-06 06:06 | 0.71583 | 111.25796 | 35814 ft | 452 kts | 34° |
| 2026-05-06 06:06 | 0.76898 | 111.29179 | 35816 ft | 452 kts | 34° |
| 2026-05-06 06:07 | 0.82177 | 111.32539 | 35801 ft | 453 kts | 34° |
| 2026-05-06 06:07 | 0.87491 | 111.35921 | 35822 ft | 453 kts | 34° |
| 2026-05-06 06:08 | 0.92810 | 111.39307 | 35822 ft | 453 kts | 34° |
| 2026-05-06 06:08 | 0.98130 | 111.42694 | 35820 ft | 453 kts | 34° |
| 2026-05-06 06:09 | 1.03590 | 111.45840 | 35821 ft | 454 kts | 25° |
| 2026-05-06 06:09 | 1.09446 | 111.48225 | 35819 ft | 455 kts | 22° |
| 2026-05-06 06:10 | 1.15353 | 111.50448 | 35822 ft | 456 kts | 22° |
| 2026-05-06 06:10 | 1.21314 | 111.52663 | 35811 ft | 457 kts | 22° |
| 2026-05-06 06:11 | 1.27261 | 111.54888 | 35828 ft | 456 kts | 22° |
| 2026-05-06 06:11 | 1.33211 | 111.57126 | 35825 ft | 456 kts | 22° |
| 2026-05-06 06:12 | 1.39159 | 111.59367 | 35811 ft | 456 kts | 22° |
| 2026-05-06 06:12 | 1.45066 | 111.61593 | 35832 ft | 456 kts | 22° |
| 2026-05-06 06:13 | 1.51016 | 111.63834 | 35834 ft | 457 kts | 22° |
| 2026-05-06 06:13 | 1.56962 | 111.66074 | 35836 ft | 457 kts | 22° |
| 2026-05-06 06:14 | 1.62910 | 111.68315 | 35839 ft | 457 kts | 22° |
| 2026-05-06 06:14 | 1.68856 | 111.70555 | 35837 ft | 457 kts | 22° |
| 2026-05-06 06:15 | 1.74813 | 111.72799 | 35836 ft | 457 kts | 22° |
| 2026-05-06 06:15 | 1.80737 | 111.75031 | 35821 ft | 457 kts | 22° |
| 2026-05-06 06:16 | 1.86701 | 111.77279 | 35835 ft | 457 kts | 22° |
| 2026-05-06 06:16 | 1.92623 | 111.79510 | 35822 ft | 457 kts | 22° |
| 2026-05-06 06:17 | 1.98580 | 111.81755 | 35833 ft | 457 kts | 22° |
| 2026-05-06 06:17 | 2.04530 | 111.83998 | 35825 ft | 456 kts | 22° |
| 2026-05-06 06:18 | 2.10447 | 111.86228 | 35822 ft | 456 kts | 22° |
| 2026-05-06 06:18 | 2.16406 | 111.88475 | 35819 ft | 456 kts | 22° |
| 2026-05-06 06:19 | 2.22341 | 111.90712 | 35820 ft | 455 kts | 22° |
| 2026-05-06 06:19 | 2.28241 | 111.92937 | 35838 ft | 455 kts | 22° |
| 2026-05-06 06:20 | 2.34187 | 111.95179 | 35837 ft | 455 kts | 22° |
| 2026-05-06 06:20 | 2.40118 | 111.97415 | 35828 ft | 455 kts | 22° |
| 2026-05-06 06:21 | 2.46009 | 111.99637 | 35840 ft | 455 kts | 22° |
| 2026-05-06 06:21 | 2.51939 | 112.01873 | 35829 ft | 455 kts | 22° |
| 2026-05-06 06:22 | 2.57881 | 112.04115 | 35824 ft | 456 kts | 22° |
| 2026-05-06 06:22 | 2.63795 | 112.06346 | 35831 ft | 456 kts | 22° |
| 2026-05-06 06:23 | 2.69756 | 112.08594 | 35830 ft | 456 kts | 22° |
| 2026-05-06 06:23 | 2.74693 | 112.10457 | 35828 ft | 455 kts | 22° |
| 2026-05-06 06:24 | 2.81576 | 112.13055 | 35836 ft | 456 kts | 22° |
| 2026-05-06 06:24 | 2.87509 | 112.15294 | 35831 ft | 455 kts | 22° |
| 2026-05-06 06:25 | 2.92444 | 112.17157 | 35842 ft | 454 kts | 22° |
| 2026-05-06 06:26 | 3.01323 | 112.20508 | 35828 ft | 454 kts | 22° |
| 2026-05-06 06:26 | 3.07251 | 112.22746 | 35825 ft | 454 kts | 22° |
| 2026-05-06 06:27 | 3.13141 | 112.24970 | 35830 ft | 454 kts | 22° |
| 2026-05-06 06:27 | 3.19075 | 112.27211 | 35834 ft | 454 kts | 22° |
| 2026-05-06 06:28 | 3.24958 | 112.29433 | 35840 ft | 454 kts | 22° |
| 2026-05-06 06:28 | 3.30881 | 112.31670 | 35831 ft | 454 kts | 22° |
| 2026-05-06 06:29 | 3.36770 | 112.33895 | 35831 ft | 454 kts | 22° |
| 2026-05-06 06:29 | 3.42693 | 112.36133 | 35836 ft | 454 kts | 22° |
| 2026-05-06 06:30 | 3.48574 | 112.38355 | 35834 ft | 454 kts | 22° |
| 2026-05-06 06:30 | 3.54500 | 112.40595 | 35838 ft | 454 kts | 22° |
| 2026-05-06 06:31 | 3.60411 | 112.42829 | 35835 ft | 454 kts | 22° |
| 2026-05-06 06:31 | 3.66332 | 112.45068 | 35834 ft | 454 kts | 22° |
| 2026-05-06 06:32 | 3.72240 | 112.47301 | 35834 ft | 454 kts | 22° |
| 2026-05-06 06:32 | 3.78133 | 112.49530 | 35833 ft | 454 kts | 22° |
| 2026-05-06 06:33 | 3.84056 | 112.51770 | 35833 ft | 454 kts | 22° |
| 2026-05-06 06:33 | 3.89975 | 112.54008 | 35828 ft | 454 kts | 22° |
| 2026-05-06 06:34 | 3.95896 | 112.56248 | 35837 ft | 454 kts | 22° |
| 2026-05-06 06:34 | 4.01776 | 112.58473 | 35840 ft | 454 kts | 22° |
| 2026-05-06 06:35 | 4.07695 | 112.60713 | 35827 ft | 454 kts | 22° |
| 2026-05-06 06:35 | 4.13611 | 112.62952 | 35832 ft | 454 kts | 22° |
| 2026-05-06 06:36 | 4.19528 | 112.65192 | 35828 ft | 454 kts | 22° |
| 2026-05-06 06:36 | 4.25441 | 112.67430 | 35827 ft | 454 kts | 22° |
| 2026-05-06 06:37 | 4.31359 | 112.69672 | 35828 ft | 454 kts | 22° |
| 2026-05-06 06:37 | 4.37275 | 112.71912 | 35824 ft | 454 kts | 22° |
| 2026-05-06 06:38 | 4.43148 | 112.74137 | 35825 ft | 454 kts | 22° |
| 2026-05-06 06:38 | 4.49066 | 112.76379 | 35823 ft | 454 kts | 22° |
| 2026-05-06 06:39 | 4.54973 | 112.78617 | 35823 ft | 454 kts | 22° |
| 2026-05-06 06:39 | 4.60861 | 112.80849 | 35821 ft | 454 kts | 22° |
| 2026-05-06 06:40 | 4.66785 | 112.83094 | 35823 ft | 454 kts | 22° |
| 2026-05-06 06:40 | 4.72694 | 112.85334 | 35820 ft | 454 kts | 22° |
| 2026-05-06 06:41 | 4.78568 | 112.87562 | 35822 ft | 454 kts | 22° |
| 2026-05-06 06:41 | 4.84473 | 112.89802 | 35823 ft | 454 kts | 22° |
| 2026-05-06 06:42 | 4.90383 | 112.92043 | 35823 ft | 454 kts | 22° |
| 2026-05-06 06:42 | 4.96294 | 112.94286 | 35830 ft | 454 kts | 22° |
| 2026-05-06 06:43 | 5.02203 | 112.96529 | 35825 ft | 454 kts | 22° |
| 2026-05-06 06:43 | 5.08119 | 112.98774 | 35823 ft | 454 kts | 22° |
| 2026-05-06 06:44 | 5.14031 | 113.01018 | 35818 ft | 454 kts | 22° |
| 2026-05-06 06:44 | 5.19945 | 113.03264 | 35821 ft | 454 kts | 22° |
| 2026-05-06 06:45 | 5.25858 | 113.05509 | 35823 ft | 454 kts | 22° |
| 2026-05-06 06:45 | 5.31733 | 113.07741 | 35824 ft | 454 kts | 22° |
| 2026-05-06 06:46 | 5.37637 | 113.09984 | 35823 ft | 454 kts | 22° |
| 2026-05-06 06:46 | 5.43551 | 113.12232 | 35825 ft | 454 kts | 22° |
| 2026-05-06 06:47 | 5.49471 | 113.14482 | 35819 ft | 454 kts | 22° |
| 2026-05-06 06:47 | 5.55385 | 113.16730 | 35820 ft | 454 kts | 22° |
| 2026-05-06 06:48 | 5.61262 | 113.18965 | 35817 ft | 454 kts | 22° |
| 2026-05-06 06:48 | 5.67171 | 113.21212 | 35821 ft | 454 kts | 22° |
| 2026-05-06 06:49 | 5.73079 | 113.23460 | 35823 ft | 454 kts | 22° |
| 2026-05-06 06:49 | 5.78981 | 113.25706 | 35822 ft | 454 kts | 22° |
| 2026-05-06 06:50 | 5.84879 | 113.27951 | 35821 ft | 454 kts | 22° |
| 2026-05-06 06:50 | 5.90788 | 113.30200 | 35817 ft | 454 kts | 22° |
| 2026-05-06 06:51 | 5.96695 | 113.32449 | 35820 ft | 453 kts | 22° |
| 2026-05-06 06:51 | 6.02586 | 113.34693 | 35823 ft | 452 kts | 22° |
| 2026-05-06 06:52 | 6.08473 | 113.36935 | 35817 ft | 452 kts | 22° |
| 2026-05-06 06:52 | 6.14359 | 113.39178 | 35818 ft | 452 kts | 22° |
| 2026-05-06 06:53 | 6.20249 | 113.41423 | 35816 ft | 452 kts | 22° |
| 2026-05-06 06:53 | 6.26133 | 113.43666 | 35818 ft | 452 kts | 22° |
| 2026-05-06 06:54 | 6.31993 | 113.45901 | 35816 ft | 453 kts | 22° |
| 2026-05-06 06:54 | 6.37879 | 113.48145 | 35819 ft | 452 kts | 22° |
| 2026-05-06 06:55 | 6.43764 | 113.50390 | 35823 ft | 452 kts | 22° |
| 2026-05-06 06:55 | 6.49618 | 113.52624 | 35817 ft | 452 kts | 22° |
| 2026-05-06 06:56 | 6.55495 | 113.54867 | 35813 ft | 451 kts | 22° |
| 2026-05-06 06:56 | 6.61379 | 113.57113 | 35817 ft | 452 kts | 22° |
| 2026-05-06 06:57 | 6.67229 | 113.59348 | 35813 ft | 452 kts | 22° |
| 2026-05-06 06:57 | 6.73121 | 113.61598 | 35820 ft | 453 kts | 22° |
| 2026-05-06 06:58 | 6.78922 | 113.63815 | 35819 ft | 453 kts | 22° |
| 2026-05-06 06:58 | 6.84817 | 113.66068 | 35821 ft | 453 kts | 22° |
| 2026-05-06 06:59 | 6.90712 | 113.68321 | 35824 ft | 453 kts | 22° |
| 2026-05-06 06:59 | 6.96606 | 113.70575 | 35821 ft | 453 kts | 22° |
| 2026-05-06 07:00 | 7.02461 | 113.72815 | 35821 ft | 453 kts | 22° |
| 2026-05-06 07:00 | 7.08349 | 113.75067 | 35817 ft | 453 kts | 22° |
| 2026-05-06 07:01 | 7.14235 | 113.77319 | 35819 ft | 452 kts | 22° |
| 2026-05-06 07:01 | 7.20124 | 113.79574 | 35824 ft | 452 kts | 22° |
| 2026-05-06 07:02 | 7.26010 | 113.81827 | 35821 ft | 452 kts | 22° |
| 2026-05-06 07:02 | 7.31861 | 113.84068 | 35827 ft | 452 kts | 22° |
| 2026-05-06 07:03 | 7.37738 | 113.86320 | 35824 ft | 452 kts | 22° |
| 2026-05-06 07:03 | 7.43622 | 113.88575 | 35823 ft | 452 kts | 22° |
| 2026-05-06 07:04 | 7.49502 | 113.90829 | 35817 ft | 452 kts | 22° |
| 2026-05-06 07:04 | 7.55389 | 113.93086 | 35820 ft | 452 kts | 22° |
| 2026-05-06 07:05 | 7.61279 | 113.95345 | 35822 ft | 452 kts | 22° |
| 2026-05-06 07:05 | 7.67159 | 113.97601 | 35819 ft | 452 kts | 22° |
| 2026-05-06 07:06 | 7.73034 | 113.99856 | 35824 ft | 451 kts | 22° |
| 2026-05-06 07:06 | 7.78862 | 114.02093 | 35824 ft | 451 kts | 22° |
| 2026-05-06 07:07 | 7.84729 | 114.04346 | 35825 ft | 451 kts | 22° |
| 2026-05-06 07:07 | 7.90607 | 114.06604 | 35822 ft | 451 kts | 22° |
| 2026-05-06 07:08 | 7.95488 | 114.08480 | 35828 ft | 451 kts | 22° |
| 2026-05-06 07:08 | 8.02306 | 114.11100 | 35824 ft | 451 kts | 22° |
| 2026-05-06 07:09 | 8.08181 | 114.13359 | 35823 ft | 451 kts | 22° |
| 2026-05-06 07:09 | 8.13097 | 114.15250 | 35825 ft | 451 kts | 22° |
| 2026-05-06 07:10 | 8.18921 | 114.17490 | 35825 ft | 451 kts | 22° |
| 2026-05-06 07:10 | 8.24810 | 114.19756 | 35820 ft | 451 kts | 22° |
| 2026-05-06 07:11 | 8.30642 | 114.22002 | 35821 ft | 451 kts | 22° |
| 2026-05-06 07:11 | 8.36511 | 114.24261 | 35826 ft | 452 kts | 22° |
| 2026-05-06 07:12 | 8.42401 | 114.26530 | 35828 ft | 453 kts | 22° |
| 2026-05-06 07:12 | 8.48292 | 114.28800 | 35830 ft | 453 kts | 22° |
| 2026-05-06 07:13 | 8.54182 | 114.31071 | 35825 ft | 453 kts | 22° |
| 2026-05-06 07:13 | 8.60073 | 114.33342 | 35826 ft | 453 kts | 22° |
| 2026-05-06 07:14 | 8.65937 | 114.35604 | 35828 ft | 453 kts | 21° |
| 2026-05-06 07:14 | 8.71839 | 114.37882 | 35826 ft | 455 kts | 22° |
| 2026-05-06 07:15 | 8.77762 | 114.40168 | 35827 ft | 455 kts | 21° |
| 2026-05-06 07:15 | 8.83682 | 114.42453 | 35836 ft | 455 kts | 21° |
| 2026-05-06 07:16 | 8.89598 | 114.44738 | 35828 ft | 455 kts | 21° |
| 2026-05-06 07:16 | 8.95487 | 114.47013 | 35830 ft | 455 kts | 21° |
| 2026-05-06 07:17 | 9.01404 | 114.49301 | 35823 ft | 454 kts | 21° |
| 2026-05-06 07:17 | 9.07314 | 114.51585 | 35825 ft | 454 kts | 21° |
| 2026-05-06 07:18 | 9.13190 | 114.53858 | 35830 ft | 454 kts | 21° |
| 2026-05-06 07:18 | 9.19097 | 114.56143 | 35825 ft | 454 kts | 21° |
| 2026-05-06 07:19 | 9.25001 | 114.58428 | 35831 ft | 454 kts | 21° |
| 2026-05-06 07:19 | 9.30872 | 114.60702 | 35832 ft | 454 kts | 21° |
| 2026-05-06 07:20 | 9.36788 | 114.62993 | 35826 ft | 455 kts | 21° |
| 2026-05-06 07:20 | 9.42701 | 114.65284 | 35829 ft | 455 kts | 21° |
| 2026-05-06 07:21 | 9.48613 | 114.67576 | 35829 ft | 455 kts | 21° |
| 2026-05-06 07:21 | 9.54525 | 114.69868 | 35827 ft | 455 kts | 21° |
| 2026-05-06 07:22 | 9.60399 | 114.72147 | 35829 ft | 455 kts | 21° |
| 2026-05-06 07:22 | 9.66310 | 114.74441 | 35831 ft | 455 kts | 20° |
| 2026-05-06 07:23 | 9.72228 | 114.76738 | 35830 ft | 455 kts | 20° |
| 2026-05-06 07:23 | 9.78141 | 114.79035 | 35839 ft | 455 kts | 20° |
| 2026-05-06 07:24 | 9.84270 | 114.80545 | 35834 ft | 453 kts | 4° |
| 2026-05-06 07:24 | 9.90531 | 114.80645 | 35834 ft | 453 kts | 358° |
| 2026-05-06 07:25 | 9.96834 | 114.80449 | 35838 ft | 453 kts | 357° |
| 2026-05-06 07:25 | 10.03156 | 114.80208 | 35839 ft | 453 kts | 357° |
| 2026-05-06 07:26 | 10.09430 | 114.79994 | 35836 ft | 454 kts | 357° |
| 2026-05-06 07:26 | 10.15739 | 114.79797 | 35834 ft | 453 kts | 357° |
| 2026-05-06 07:27 | 10.22052 | 114.79606 | 35830 ft | 454 kts | 358° |
| 2026-05-06 07:27 | 10.28364 | 114.79415 | 35828 ft | 453 kts | 358° |
| 2026-05-06 07:28 | 10.34672 | 114.79223 | 35838 ft | 453 kts | 357° |
| 2026-05-06 07:28 | 10.44106 | 114.78935 | 35830 ft | 453 kts | 357° |
| 2026-05-06 07:29 | 10.50415 | 114.78742 | 35830 ft | 453 kts | 357° |
| 2026-05-06 07:29 | 10.56731 | 114.78548 | 35840 ft | 453 kts | 357° |
| 2026-05-06 07:30 | 10.63035 | 114.78356 | 35839 ft | 453 kts | 357° |
| 2026-05-06 07:30 | 10.69349 | 114.78162 | 35839 ft | 453 kts | 357° |
| 2026-05-06 07:31 | 10.75627 | 114.77970 | 35840 ft | 453 kts | 357° |
| 2026-05-06 07:31 | 10.81931 | 114.77777 | 35838 ft | 453 kts | 357° |
| 2026-05-06 07:32 | 10.88237 | 114.77584 | 35846 ft | 453 kts | 357° |
| 2026-05-06 07:32 | 10.94549 | 114.77390 | 35841 ft | 453 kts | 357° |
| 2026-05-06 07:33 | 11.00853 | 114.77197 | 35839 ft | 453 kts | 357° |
| 2026-05-06 07:33 | 11.07159 | 114.77003 | 35840 ft | 452 kts | 357° |
| 2026-05-06 07:34 | 11.13418 | 114.76811 | 35840 ft | 453 kts | 357° |
| 2026-05-06 07:34 | 11.19718 | 114.76617 | 35835 ft | 452 kts | 357° |
| 2026-05-06 07:35 | 11.26009 | 114.76424 | 35836 ft | 453 kts | 357° |
| 2026-05-06 07:35 | 11.32307 | 114.76231 | 35839 ft | 452 kts | 357° |
| 2026-05-06 07:36 | 11.38599 | 114.76037 | 35843 ft | 452 kts | 357° |
| 2026-05-06 07:36 | 11.44892 | 114.75843 | 35839 ft | 452 kts | 357° |
| 2026-05-06 07:37 | 11.51185 | 114.75650 | 35844 ft | 452 kts | 357° |
| 2026-05-06 07:37 | 11.57475 | 114.75456 | 35844 ft | 452 kts | 357° |
| 2026-05-06 07:38 | 11.63766 | 114.75262 | 35845 ft | 452 kts | 357° |
| 2026-05-06 07:38 | 11.70055 | 114.75068 | 35840 ft | 452 kts | 357° |
| 2026-05-06 07:39 | 11.76337 | 114.74874 | 35842 ft | 452 kts | 357° |
| 2026-05-06 07:39 | 11.82607 | 114.74681 | 35843 ft | 452 kts | 357° |
| 2026-05-06 07:40 | 11.88896 | 114.74487 | 35843 ft | 452 kts | 357° |
| 2026-05-06 07:40 | 11.95191 | 114.74292 | 35844 ft | 452 kts | 357° |
| 2026-05-06 07:41 | 12.01447 | 114.74099 | 35846 ft | 452 kts | 357° |
| 2026-05-06 07:41 | 12.07730 | 114.73905 | 35843 ft | 452 kts | 357° |
| 2026-05-06 07:42 | 12.14019 | 114.73710 | 35842 ft | 452 kts | 357° |
| 2026-05-06 07:42 | 12.20306 | 114.73516 | 35845 ft | 452 kts | 357° |
| 2026-05-06 07:43 | 12.26559 | 114.73322 | 35845 ft | 452 kts | 357° |
| 2026-05-06 07:43 | 12.32840 | 114.73128 | 35843 ft | 451 kts | 357° |
| 2026-05-06 07:44 | 12.39134 | 114.72933 | 35843 ft | 450 kts | 357° |
| 2026-05-06 07:44 | 12.45357 | 114.72740 | 35847 ft | 450 kts | 357° |
| 2026-05-06 07:45 | 12.51633 | 114.72545 | 35852 ft | 450 kts | 357° |
| 2026-05-06 07:45 | 12.57905 | 114.72351 | 35855 ft | 450 kts | 357° |
| 2026-05-06 07:46 | 12.64175 | 114.72157 | 35852 ft | 450 kts | 357° |
| 2026-05-06 07:46 | 12.70421 | 114.71964 | 35853 ft | 450 kts | 357° |
| 2026-05-06 07:47 | 12.76684 | 114.71770 | 35849 ft | 450 kts | 357° |
| 2026-05-06 07:47 | 12.82950 | 114.71575 | 35854 ft | 450 kts | 357° |
| 2026-05-06 07:48 | 12.89215 | 114.71381 | 35854 ft | 450 kts | 357° |
| 2026-05-06 07:48 | 12.95484 | 114.71186 | 35855 ft | 450 kts | 357° |
| 2026-05-06 07:49 | 13.01747 | 114.70992 | 35856 ft | 450 kts | 357° |
| 2026-05-06 07:49 | 13.07960 | 114.70799 | 35852 ft | 450 kts | 357° |
| 2026-05-06 07:50 | 13.14223 | 114.70604 | 35853 ft | 450 kts | 356° |
| 2026-05-06 07:50 | 13.20491 | 114.70409 | 35855 ft | 450 kts | 356° |
| 2026-05-06 07:51 | 13.26740 | 114.70215 | 35854 ft | 450 kts | 356° |
| 2026-05-06 07:51 | 13.32995 | 114.70020 | 35857 ft | 449 kts | 356° |
| 2026-05-06 07:52 | 13.39199 | 114.69827 | 35858 ft | 448 kts | 356° |
| 2026-05-06 07:52 | 13.45436 | 114.69632 | 35858 ft | 448 kts | 356° |
| 2026-05-06 07:53 | 13.51676 | 114.69437 | 35855 ft | 448 kts | 356° |
| 2026-05-06 07:53 | 13.57924 | 114.69242 | 35855 ft | 448 kts | 356° |
| 2026-05-06 07:54 | 13.64163 | 114.69046 | 35859 ft | 448 kts | 356° |
| 2026-05-06 07:54 | 13.70398 | 114.68851 | 35856 ft | 448 kts | 356° |
| 2026-05-06 07:55 | 13.76588 | 114.68657 | 35857 ft | 448 kts | 356° |
| 2026-05-06 07:55 | 13.82814 | 114.68462 | 35857 ft | 448 kts | 356° |
| 2026-05-06 07:56 | 13.89048 | 114.68267 | 35857 ft | 448 kts | 356° |
| 2026-05-06 07:56 | 13.94229 | 114.68104 | 35856 ft | 448 kts | 356° |
| 2026-05-06 07:57 | 14.01516 | 114.67875 | 35856 ft | 448 kts | 356° |
| 2026-05-06 07:57 | 14.06695 | 114.67713 | 35856 ft | 448 kts | 356° |
| 2026-05-06 07:58 | 14.12925 | 114.67517 | 35856 ft | 448 kts | 356° |
| 2026-05-06 07:58 | 14.19150 | 114.67321 | 35857 ft | 448 kts | 356° |
| 2026-05-06 07:59 | 14.25340 | 114.67126 | 35857 ft | 448 kts | 356° |
| 2026-05-06 07:59 | 14.31575 | 114.66930 | 35857 ft | 447 kts | 356° |
| 2026-05-06 08:00 | 14.37803 | 114.66734 | 35859 ft | 447 kts | 356° |
| 2026-05-06 08:00 | 14.44016 | 114.66537 | 35860 ft | 446 kts | 356° |
| 2026-05-06 08:01 | 14.50198 | 114.66341 | 35856 ft | 447 kts | 356° |
| 2026-05-06 08:01 | 14.56411 | 114.66145 | 35856 ft | 447 kts | 356° |
| 2026-05-06 08:02 | 14.62623 | 114.65948 | 35857 ft | 446 kts | 356° |
| 2026-05-06 08:02 | 14.68832 | 114.65752 | 35859 ft | 446 kts | 356° |
| 2026-05-06 08:03 | 14.75010 | 114.65556 | 35860 ft | 446 kts | 356° |
| 2026-05-06 08:03 | 14.81222 | 114.65359 | 35862 ft | 446 kts | 356° |
| 2026-05-06 08:04 | 14.87433 | 114.65163 | 35862 ft | 446 kts | 356° |
| 2026-05-06 08:04 | 14.93646 | 114.64966 | 35863 ft | 446 kts | 356° |
| 2026-05-06 08:05 | 14.99813 | 114.64771 | 35862 ft | 446 kts | 356° |
| 2026-05-06 08:05 | 15.06018 | 114.64574 | 35862 ft | 446 kts | 356° |
| 2026-05-06 08:06 | 15.12218 | 114.64378 | 35862 ft | 446 kts | 356° |
| 2026-05-06 08:06 | 15.18424 | 114.64181 | 35862 ft | 446 kts | 356° |
| 2026-05-06 08:07 | 15.24630 | 114.63984 | 35862 ft | 446 kts | 356° |
| 2026-05-06 08:07 | 15.30831 | 114.63788 | 35862 ft | 445 kts | 356° |
| 2026-05-06 08:08 | 15.37026 | 114.63592 | 35864 ft | 445 kts | 356° |
| 2026-05-06 08:08 | 15.43183 | 114.63396 | 35864 ft | 445 kts | 356° |
| 2026-05-06 08:09 | 15.49378 | 114.63200 | 35865 ft | 445 kts | 356° |
| 2026-05-06 08:09 | 15.55572 | 114.63003 | 35864 ft | 445 kts | 356° |
| 2026-05-06 08:10 | 15.61773 | 114.62806 | 35865 ft | 445 kts | 355° |
| 2026-05-06 08:10 | 15.67972 | 114.62608 | 35863 ft | 445 kts | 355° |
| 2026-05-06 08:11 | 15.74127 | 114.62412 | 35867 ft | 445 kts | 355° |
| 2026-05-06 08:11 | 15.80333 | 114.62214 | 35866 ft | 445 kts | 355° |
| 2026-05-06 08:12 | 15.86523 | 114.62016 | 35865 ft | 445 kts | 355° |
| 2026-05-06 08:12 | 15.92722 | 114.61818 | 35865 ft | 446 kts | 355° |
| 2026-05-06 08:13 | 15.98927 | 114.61619 | 35865 ft | 446 kts | 355° |
| 2026-05-06 08:13 | 16.05128 | 114.61421 | 35865 ft | 446 kts | 355° |
| 2026-05-06 08:14 | 16.11307 | 114.61223 | 35865 ft | 446 kts | 355° |
| 2026-05-06 08:14 | 16.17518 | 114.61024 | 35865 ft | 446 kts | 355° |
| 2026-05-06 08:15 | 16.23723 | 114.60825 | 35867 ft | 446 kts | 355° |
| 2026-05-06 08:15 | 16.29937 | 114.60626 | 35864 ft | 447 kts | 355° |
| 2026-05-06 08:16 | 16.36152 | 114.60426 | 35865 ft | 447 kts | 355° |
| 2026-05-06 08:16 | 16.42366 | 114.60227 | 35864 ft | 447 kts | 356° |
| 2026-05-06 08:17 | 16.48585 | 114.60027 | 35870 ft | 447 kts | 356° |
| 2026-05-06 08:17 | 16.54797 | 114.59827 | 35876 ft | 447 kts | 356° |
| 2026-05-06 08:18 | 16.61024 | 114.59625 | 35870 ft | 448 kts | 356° |
| 2026-05-06 08:18 | 16.67211 | 114.59426 | 35870 ft | 448 kts | 356° |
| 2026-05-06 08:19 | 16.73450 | 114.59224 | 35870 ft | 448 kts | 356° |
| 2026-05-06 08:19 | 16.79678 | 114.59023 | 35870 ft | 448 kts | 356° |
| 2026-05-06 08:20 | 16.85906 | 114.58821 | 35867 ft | 448 kts | 356° |
| 2026-05-06 08:20 | 16.92151 | 114.58619 | 35867 ft | 448 kts | 355° |
| 2026-05-06 08:21 | 16.98391 | 114.58417 | 35867 ft | 449 kts | 356° |
| 2026-05-06 08:21 | 17.04630 | 114.58215 | 35867 ft | 449 kts | 356° |
| 2026-05-06 08:22 | 17.10833 | 114.58015 | 35867 ft | 449 kts | 356° |
| 2026-05-06 08:22 | 17.17086 | 114.57812 | 35867 ft | 449 kts | 356° |
| 2026-05-06 08:23 | 17.23335 | 114.57610 | 35867 ft | 449 kts | 356° |
| 2026-05-06 08:23 | 17.29578 | 114.57408 | 35867 ft | 449 kts | 356° |
| 2026-05-06 08:24 | 17.35820 | 114.57205 | 35867 ft | 449 kts | 356° |
| 2026-05-06 08:24 | 17.42024 | 114.57004 | 35870 ft | 449 kts | 356° |
| 2026-05-06 08:25 | 17.48265 | 114.56802 | 35870 ft | 449 kts | 356° |
| 2026-05-06 08:25 | 17.54508 | 114.56600 | 35870 ft | 449 kts | 355° |
| 2026-05-06 08:26 | 17.60758 | 114.56397 | 35870 ft | 449 kts | 355° |
| 2026-05-06 08:26 | 17.67004 | 114.56194 | 35873 ft | 449 kts | 355° |
| 2026-05-06 08:27 | 17.73260 | 114.55991 | 35873 ft | 449 kts | 355° |
| 2026-05-06 08:27 | 17.79469 | 114.55789 | 35873 ft | 449 kts | 355° |
| 2026-05-06 08:28 | 17.85715 | 114.55585 | 35873 ft | 449 kts | 355° |
| 2026-05-06 08:28 | 17.91961 | 114.55382 | 35873 ft | 449 kts | 355° |
| 2026-05-06 08:29 | 17.98205 | 114.55178 | 35873 ft | 449 kts | 355° |
| 2026-05-06 08:29 | 18.04447 | 114.54973 | 35873 ft | 449 kts | 355° |
| 2026-05-06 08:30 | 18.10694 | 114.54769 | 35876 ft | 449 kts | 355° |
| 2026-05-06 08:30 | 18.16897 | 114.54567 | 35876 ft | 449 kts | 355° |
| 2026-05-06 08:31 | 18.23156 | 114.54515 | 35876 ft | 451 kts | 2° |
| 2026-05-06 08:31 | 18.29387 | 114.55556 | 35875 ft | 454 kts | 8° |
| 2026-05-06 08:32 | 18.35551 | 114.56877 | 35875 ft | 454 kts | 9° |
| 2026-05-06 08:32 | 18.41737 | 114.58260 | 35878 ft | 455 kts | 9° |
| 2026-05-06 08:33 | 18.47940 | 114.59636 | 35879 ft | 455 kts | 8° |
| 2026-05-06 08:33 | 18.54147 | 114.60999 | 35878 ft | 456 kts | 8° |
| 2026-05-06 08:34 | 18.63467 | 114.63037 | 35881 ft | 456 kts | 8° |
| 2026-05-06 08:35 | 18.69655 | 114.64392 | 35881 ft | 456 kts | 8° |
| 2026-05-06 08:35 | 18.75867 | 114.65754 | 35884 ft | 456 kts | 8° |
| 2026-05-06 08:36 | 18.82084 | 114.67118 | 35880 ft | 456 kts | 8° |
| 2026-05-06 08:36 | 18.88307 | 114.68484 | 35880 ft | 456 kts | 8° |
| 2026-05-06 08:37 | 18.94515 | 114.69848 | 35882 ft | 456 kts | 8° |
| 2026-05-06 08:37 | 19.00765 | 114.70800 | 35881 ft | 451 kts | 356° |
| 2026-05-06 08:38 | 19.07013 | 114.70520 | 35882 ft | 449 kts | 353° |
| 2026-05-06 08:38 | 19.13203 | 114.70000 | 35883 ft | 449 kts | 352° |
| 2026-05-06 08:39 | 19.19423 | 114.69436 | 35882 ft | 448 kts | 352° |
| 2026-05-06 08:39 | 19.25644 | 114.68890 | 35887 ft | 449 kts | 352° |
| 2026-05-06 08:40 | 19.31869 | 114.68360 | 35888 ft | 449 kts | 352° |
| 2026-05-06 08:40 | 19.38096 | 114.67834 | 35890 ft | 449 kts | 352° |
| 2026-05-06 08:41 | 19.44324 | 114.67307 | 35887 ft | 448 kts | 352° |
| 2026-05-06 08:41 | 19.50546 | 114.66780 | 35886 ft | 448 kts | 352° |
| 2026-05-06 08:42 | 19.56736 | 114.66255 | 35886 ft | 448 kts | 352° |
| 2026-05-06 08:42 | 19.62954 | 114.65727 | 35889 ft | 448 kts | 352° |
| 2026-05-06 08:43 | 19.69183 | 114.65197 | 35893 ft | 448 kts | 352° |
| 2026-05-06 08:43 | 19.75405 | 114.64668 | 35892 ft | 448 kts | 352° |
| 2026-05-06 08:44 | 19.80574 | 114.64228 | 35888 ft | 448 kts | 352° |
| 2026-05-06 08:44 | 19.87804 | 114.63612 | 35892 ft | 448 kts | 352° |
| 2026-05-06 08:45 | 19.94025 | 114.63082 | 35889 ft | 448 kts | 352° |
| 2026-05-06 08:45 | 19.99197 | 114.62640 | 35901 ft | 448 kts | 352° |
| 2026-05-06 08:46 | 20.05408 | 114.62110 | 35890 ft | 448 kts | 352° |
| 2026-05-06 08:46 | 20.11626 | 114.61579 | 35891 ft | 447 kts | 352° |
| 2026-05-06 08:47 | 20.17829 | 114.61048 | 35892 ft | 447 kts | 352° |
| 2026-05-06 08:47 | 20.24037 | 114.60517 | 35895 ft | 447 kts | 352° |
| 2026-05-06 08:48 | 20.30213 | 114.59988 | 35898 ft | 447 kts | 352° |
| 2026-05-06 08:48 | 20.36431 | 114.59455 | 35899 ft | 447 kts | 352° |
| 2026-05-06 08:49 | 20.42649 | 114.58921 | 35898 ft | 447 kts | 352° |
| 2026-05-06 08:49 | 20.48890 | 114.58383 | 35458 ft | 456 kts | 352° |
| 2026-05-06 08:49 | 20.52040 | 114.58110 | 34612 ft | 463 kts | 352° |
| 2026-05-06 08:50 | 20.55279 | 114.57829 | 33614 ft | 472 kts | 352° |
| 2026-05-06 08:50 | 20.58587 | 114.57543 | 32527 ft | 480 kts | 352° |
| 2026-05-06 08:50 | 20.61943 | 114.57253 | 31535 ft | 486 kts | 352° |
| 2026-05-06 08:50 | 20.65322 | 114.56963 | 30693 ft | 488 kts | 353° |
| 2026-05-06 08:51 | 20.68706 | 114.56674 | 29981 ft | 487 kts | 353° |
| 2026-05-06 08:51 | 20.72064 | 114.56388 | 29334 ft | 482 kts | 353° |
| 2026-05-06 08:51 | 20.75388 | 114.56104 | 28691 ft | 477 kts | 353° |
| 2026-05-06 08:51 | 20.78686 | 114.55822 | 28030 ft | 473 kts | 353° |
| 2026-05-06 08:52 | 20.81950 | 114.55542 | 27384 ft | 468 kts | 353° |
| 2026-05-06 08:52 | 20.85198 | 114.55376 | 26748 ft | 466 kts | 357° |
| 2026-05-06 08:52 | 20.88425 | 114.55367 | 26130 ft | 462 kts | 357° |
| 2026-05-06 08:52 | 20.91622 | 114.55379 | 25550 ft | 458 kts | 357° |
| 2026-05-06 08:53 | 20.94793 | 114.55401 | 25014 ft | 452 kts | 357° |
| 2026-05-06 08:53 | 20.97892 | 114.55425 | 24402 ft | 449 kts | 357° |
| 2026-05-06 08:53 | 21.01009 | 114.55451 | 23845 ft | 445 kts | 357° |
| 2026-05-06 08:53 | 21.04096 | 114.55479 | 23210 ft | 441 kts | 357° |
| 2026-05-06 08:54 | 21.07157 | 114.55507 | 22561 ft | 438 kts | 358° |
| 2026-05-06 08:54 | 21.10193 | 114.55534 | 21954 ft | 433 kts | 358° |
| 2026-05-06 08:54 | 21.13190 | 114.55562 | 21428 ft | 427 kts | 358° |
| 2026-05-06 08:54 | 21.16106 | 114.55589 | 20910 ft | 421 kts | 358° |
| 2026-05-06 08:55 | 21.19013 | 114.55616 | 20391 ft | 415 kts | 358° |
| 2026-05-06 08:55 | 21.21891 | 114.55643 | 19893 ft | 410 kts | 358° |
| 2026-05-06 08:55 | 21.24724 | 114.55669 | 19385 ft | 406 kts | 358° |
| 2026-05-06 08:55 | 21.27532 | 114.55695 | 18881 ft | 401 kts | 358° |
| 2026-05-06 08:56 | 21.30312 | 114.55721 | 18384 ft | 397 kts | 358° |
| 2026-05-06 08:56 | 21.33067 | 114.55746 | 17840 ft | 393 kts | 358° |
| 2026-05-06 08:56 | 21.35788 | 114.55772 | 17316 ft | 388 kts | 358° |
| 2026-05-06 08:56 | 21.38477 | 114.55797 | 16835 ft | 383 kts | 358° |
| 2026-05-06 08:57 | 21.41128 | 114.55822 | 16354 ft | 378 kts | 358° |
| 2026-05-06 08:57 | 21.43744 | 114.55847 | 15869 ft | 373 kts | 358° |
| 2026-05-06 08:57 | 21.46299 | 114.55871 | 15385 ft | 369 kts | 358° |
| 2026-05-06 08:57 | 21.48840 | 114.55693 | 14880 ft | 363 kts | 347° |
| 2026-05-06 08:58 | 21.51313 | 114.55001 | 14376 ft | 358 kts | 340° |
| 2026-05-06 08:58 | 21.53628 | 114.54205 | 13934 ft | 353 kts | 339° |
| 2026-05-06 08:58 | 21.55919 | 114.53398 | 13704 ft | 341 kts | 339° |
| 2026-05-06 08:58 | 21.58171 | 114.52605 | 13225 ft | 340 kts | 339° |
| 2026-05-06 08:59 | 21.60385 | 114.51736 | 12920 ft | 339 kts | 332° |
| 2026-05-06 08:59 | 21.62321 | 114.50335 | 12594 ft | 334 kts | 316° |
| 2026-05-06 08:59 | 21.63936 | 114.48594 | 12342 ft | 333 kts | 311° |
| 2026-05-06 08:59 | 21.65507 | 114.46767 | 12104 ft | 332 kts | 311° |
| 2026-05-06 09:00 | 21.67071 | 114.44935 | 11854 ft | 332 kts | 310° |
| 2026-05-06 09:00 | 21.68630 | 114.43116 | 11618 ft | 330 kts | 310° |
| 2026-05-06 09:00 | 21.70188 | 114.41305 | 11375 ft | 329 kts | 311° |
| 2026-05-06 09:00 | 21.71743 | 114.39501 | 11138 ft | 328 kts | 311° |
| 2026-05-06 09:01 | 21.73295 | 114.37702 | 10894 ft | 328 kts | 311° |
| 2026-05-06 09:01 | 21.74847 | 114.35905 | 10649 ft | 328 kts | 311° |
| 2026-05-06 09:01 | 21.76388 | 114.34121 | 10456 ft | 320 kts | 311° |
| 2026-05-06 09:01 | 21.77873 | 114.32403 | 10269 ft | 308 kts | 311° |
| 2026-05-06 09:02 | 21.79313 | 114.30737 | 10041 ft | 298 kts | 310° |
| 2026-05-06 09:02 | 21.80704 | 114.29126 | 9810 ft | 290 kts | 310° |
| 2026-05-06 09:02 | 21.82068 | 114.27545 | 9527 ft | 287 kts | 310° |
| 2026-05-06 09:02 | 21.83427 | 114.25967 | 9289 ft | 288 kts | 310° |
| 2026-05-06 09:03 | 21.84774 | 114.24404 | 9086 ft | 286 kts | 310° |
| 2026-05-06 09:03 | 21.86127 | 114.22833 | 8877 ft | 286 kts | 310° |
| 2026-05-06 09:03 | 21.87478 | 114.21264 | 8681 ft | 286 kts | 310° |
| 2026-05-06 09:03 | 21.88811 | 114.19684 | 8470 ft | 285 kts | 306° |
| 2026-05-06 09:04 | 21.89918 | 114.17922 | 8242 ft | 282 kts | 298° |
| 2026-05-06 09:04 | 21.90885 | 114.16093 | 8038 ft | 281 kts | 296° |
| 2026-05-06 09:04 | 21.91831 | 114.14250 | 7829 ft | 280 kts | 296° |
| 2026-05-06 09:04 | 21.92770 | 114.12417 | 7623 ft | 279 kts | 296° |
| 2026-05-06 09:05 | 21.93710 | 114.10587 | 7422 ft | 279 kts | 296° |
| 2026-05-06 09:05 | 21.94651 | 114.08761 | 7220 ft | 278 kts | 297° |
| 2026-05-06 09:05 | 21.95590 | 114.06939 | 7018 ft | 279 kts | 297° |
| 2026-05-06 09:05 | 21.96517 | 114.05143 | 6816 ft | 277 kts | 297° |
| 2026-05-06 09:06 | 21.97463 | 114.03310 | 6594 ft | 276 kts | 297° |
| 2026-05-06 09:06 | 21.98384 | 114.01525 | 6404 ft | 275 kts | 297° |
| 2026-05-06 09:06 | 21.99315 | 113.99721 | 6191 ft | 275 kts | 297° |
| 2026-05-06 09:06 | 22.00241 | 113.97924 | 5988 ft | 274 kts | 297° |
| 2026-05-06 09:07 | 22.01168 | 113.96126 | 5782 ft | 274 kts | 297° |
| 2026-05-06 09:07 | 22.02094 | 113.94331 | 5585 ft | 273 kts | 297° |
| 2026-05-06 09:07 | 22.03016 | 113.92541 | 5404 ft | 272 kts | 297° |
| 2026-05-06 09:07 | 22.03934 | 113.90757 | 5264 ft | 272 kts | 297° |
| 2026-05-06 09:08 | 22.04853 | 113.88973 | 5061 ft | 272 kts | 297° |
| 2026-05-06 09:08 | 22.05774 | 113.87184 | 4841 ft | 272 kts | 296° |
| 2026-05-06 09:08 | 22.06692 | 113.85401 | 4641 ft | 272 kts | 296° |
| 2026-05-06 09:08 | 22.07610 | 113.83618 | 4450 ft | 271 kts | 296° |
| 2026-05-06 09:09 | 22.08523 | 113.81841 | 4235 ft | 271 kts | 297° |
| 2026-05-06 09:09 | 22.09437 | 113.80064 | 4052 ft | 270 kts | 296° |
| 2026-05-06 09:09 | 22.10377 | 113.78386 | 3887 ft | 260 kts | 306° |
| 2026-05-06 09:09 | 22.11706 | 113.77114 | 3725 ft | 254 kts | 328° |
| 2026-05-06 09:10 | 22.13257 | 113.76247 | 3526 ft | 248 kts | 334° |
| 2026-05-06 09:10 | 22.14804 | 113.75487 | 3378 ft | 240 kts | 335° |
| 2026-05-06 09:10 | 22.16298 | 113.74759 | 3181 ft | 232 kts | 335° |
| 2026-05-06 09:10 | 22.17743 | 113.74051 | 2994 ft | 224 kts | 334° |
| 2026-05-06 09:11 | 22.19135 | 113.73365 | 2837 ft | 216 kts | 335° |
| 2026-05-06 09:11 | 22.20480 | 113.72698 | 2685 ft | 210 kts | 335° |
| 2026-05-06 09:11 | 22.21792 | 113.72048 | 2524 ft | 204 kts | 337° |
| 2026-05-06 09:11 | 22.23147 | 113.71695 | 2346 ft | 201 kts | 3° |
| 2026-05-06 09:12 | 22.24418 | 113.72187 | 2186 ft | 193 kts | 36° |
| 2026-05-06 09:12 | 22.25465 | 113.73078 | 2043 ft | 192 kts | 44° |
| 2026-05-06 09:12 | 22.26474 | 113.74035 | 1895 ft | 192 kts | 45° |
| 2026-05-06 09:12 | 22.27459 | 113.75005 | 1727 ft | 191 kts | 51° |
| 2026-05-06 09:13 | 22.28218 | 113.76141 | 1619 ft | 184 kts | 66° |
| 2026-05-06 09:13 | 22.28676 | 113.77394 | 1504 ft | 181 kts | 73° |
| 2026-05-06 09:13 | 22.29052 | 113.78581 | 1496 ft | 150 kts | 74° |
| 2026-05-06 09:13 | 22.29365 | 113.79548 | 1492 ft | 127 kts | 75° |
| 2026-05-06 09:14 | 22.29653 | 113.80440 | 1512 ft | 129 kts | 74° |
| 2026-05-06 09:14 | 22.29962 | 113.81403 | 1402 ft | 139 kts | 75° |
| 2026-05-06 09:14 | 22.30275 | 113.82371 | 1183 ft | 133 kts | 75° |
| 2026-05-06 09:14 | 22.30571 | 113.83290 | 1009 ft | 127 kts | 76° |
| 2026-05-06 09:15 | 22.30860 | 113.84194 | 834 ft | 127 kts | 73° |
| 2026-05-06 09:15 | 22.31144 | 113.85075 | 680 ft | 125 kts | 76° |
| 2026-05-06 09:15 | 22.31429 | 113.85966 | 505 ft | 121 kts | 72° |
| 2026-05-06 09:15 | 22.31693 | 113.86787 | 357 ft | 113 kts | 71° |
| 2026-05-06 09:16 | 22.31945 | 113.87583 | 196 ft | 108 kts | 72° |
| 2026-05-06 09:16 | 22.32171 | 113.88297 | 36 ft | 94 kts | 72° |
| 2026-05-06 09:16 | 22.32348 | 113.88831 | 35 ft | 43 kts | 70° |
| 2026-05-06 09:16 | 22.32413 | 113.89022 | 35 ft | 30 kts | 70° |
| 2026-05-06 09:17 | 22.32487 | 113.89253 | 35 ft | 41 kts | 71° |
| 2026-05-06 09:17 | 22.32589 | 113.89570 | 36 ft | 44 kts | 71° |
| 2026-05-06 09:17 | 22.32689 | 113.89888 | 36 ft | 42 kts | 78° |
| 2026-05-06 09:17 | 22.32680 | 113.90173 | 36 ft | 31 kts | 104° |
| 2026-05-06 09:18 | 22.32577 | 113.90321 | 36 ft | 21 kts | 110° |
| 2026-05-06 09:18 | 22.32484 | 113.90427 | 36 ft | 20 kts | 162° |
| 2026-05-06 09:18 | 22.32346 | 113.90479 | 36 ft | 22 kts | 160° |
| 2026-05-06 09:18 | 22.32195 | 113.90537 | 36 ft | 24 kts | 160° |
| 2026-05-06 09:19 | 22.32034 | 113.90596 | 36 ft | 25 kts | 162° |
| 2026-05-06 09:19 | 22.31867 | 113.90656 | 36 ft | 26 kts | 161° |
| 2026-05-06 09:19 | 22.31697 | 113.90731 | 36 ft | 23 kts | 134° |
| 2026-05-06 09:19 | 22.31707 | 113.90857 | 36 ft | 17 kts | 70° |
| 2026-05-06 09:20 | 22.31748 | 113.90986 | 36 ft | 20 kts | 71° |
| 2026-05-06 09:20 | 22.31797 | 113.91135 | 36 ft | 23 kts | 71° |
| 2026-05-06 09:20 | 22.31851 | 113.91305 | 36 ft | 25 kts | 70° |
| 2026-05-06 09:20 | 22.31912 | 113.91493 | 36 ft | 27 kts | 70° |
| 2026-05-06 09:21 | 22.31976 | 113.91695 | 36 ft | 29 kts | 71° |
| 2026-05-06 09:21 | 22.32045 | 113.91909 | 36 ft | 31 kts | 71° |
| 2026-05-06 09:21 | 22.32116 | 113.92135 | 36 ft | 32 kts | 70° |
| 2026-05-06 09:21 | 22.32192 | 113.92364 | 36 ft | 32 kts | 71° |
| 2026-05-06 09:22 | 22.32260 | 113.92578 | 36 ft | 22 kts | 71° |
| 2026-05-06 09:22 | 22.32248 | 113.92667 | 36 ft | 6 kts | 147° |
| 2026-05-06 09:22 | 22.32208 | 113.92685 | 36 ft | 8 kts | 161° |
| 2026-05-06 09:22 | 22.32140 | 113.92707 | 36 ft | 12 kts | 163° |
| 2026-05-06 09:23 | 22.32066 | 113.92734 | 38 ft | 12 kts | 161° |
| 2026-05-06 09:23 | 22.31979 | 113.92766 | 38 ft | 14 kts | 161° |
| 2026-05-06 09:23 | 22.31872 | 113.92808 | 36 ft | 18 kts | 158° |
| 2026-05-06 09:23 | 22.31783 | 113.92849 | 36 ft | 17 kts | 158° |
| 2026-05-06 09:24 | 22.31676 | 113.92890 | 36 ft | 19 kts | 161° |
| 2026-05-06 09:24 | 22.31568 | 113.92925 | 36 ft | 10 kts | 180° |
| 2026-05-06 09:24 | 22.31514 | 113.92882 | 36 ft | 9 kts | 251° |
| 2026-05-06 09:24 | 22.31494 | 113.92853 | 35 ft | 2 kts | 194° |
| 2026-05-06 09:25 | 22.31469 | 113.92849 | 36 ft | 5 kts | 181° |
| 2026-05-06 09:25 | 22.31432 | 113.92856 | 36 ft | 5 kts | 165° |
| 2026-05-06 09:25 | 22.31407 | 113.92866 | 36 ft | 2 kts | 161° |
| 2026-05-06 09:25 | 22.31406 | 113.92866 | 36 ft | 0 kts | 161° |